KALB/ALB METAR and TAF weather

Enter ICAO airport designator
Station Type Date Time Source
KALB METAR 2022/01/25 04:59 UTC NOAA

KALB 250459Z 16007KT 6SM -SN BR BKN012 OVC060 M03/M06 A2981 RMK AO2 P0000 T10331056 $


Station Type Date Time Source
KALB Decoded METAR 2022/01/25 04:59 UTC NOAA

ALBANY INTERNATIONAL AIRPORT, NY, United States (KALB) 42-45N 73-48W
Jan 24, 2022 - 11:59 PM EST / 2022.01.25 0459 UTC
Wind: from the SSE (160 degrees) at 8 MPH (7 KT):0
Visibility: 6 mile(s):0
Sky conditions: overcast
Weather: light snow; mist
Precipitation last hour: A trace
Temperature: 26.1 F (-3.3 C)
Windchill: 17 F (-8 C):1
Dew Point: 21.9 F (-5.6 C)
Relative Humidity: 84%
Pressure (altimeter): 29.81 in. Hg (1009 hPa)
ob: KALB 250459Z 16007KT 6SM -SN BR BKN012 OVC060 M03/M06 A2981 RMK AO2 P0000 T10331056
cycle: 5

Station Type Date Time Source
KALB TAF 2022/01/25 06:24 UTC NOAA

TAF KALB 250522Z 2506/2606 17007KT 6SM -SHSN BR SCT012 OVC060
TEMPO 2506/2508 4SM -SHSN BR BKN012 OVC040
FM250800 17009KT P6SM SCT025 OVC060
FM251300 25007KT P6SM BKN060
FM251600 28012G21KT P6SM SCT035 BKN050
FM252200 29013KT P6SM VCSH BKN040
FM260200 30008KT P6SM SCT035

Example: see airport list